sensor_id;sensor_type;location;lat;lon;timestamp;pressure;altitude;pressure_sealevel;temperature;humidity
55675;BME280;41562;44.330;23.802;2023-03-14T00:01:17;100526.16;;;4.39;78.26
55675;BME280;41562;44.330;23.802;2023-03-14T00:03:46;100521.53;;;4.34;77.84
55675;BME280;41562;44.330;23.802;2023-03-14T00:06:17;100511.84;;;4.28;81.70
55675;BME280;41562;44.330;23.802;2023-03-14T00:08:45;100508.63;;;3.90;80.28
55675;BME280;41562;44.330;23.802;2023-03-14T00:11:15;100503.84;;;3.98;79.92
55675;BME280;41562;44.330;23.802;2023-03-14T00:13:43;100491.88;;;3.96;79.87
55675;BME280;41562;44.330;23.802;2023-03-14T00:16:12;100483.63;;;3.86;82.89
55675;BME280;41562;44.330;23.802;2023-03-14T00:18:40;100491.28;;;3.76;80.70
55675;BME280;41562;44.330;23.802;2023-03-14T00:21:09;100471.88;;;3.82;80.50
55675;BME280;41562;44.330;23.802;2023-03-14T00:23:40;100480.72;;;3.76;80.46
55675;BME280;41562;44.330;23.802;2023-03-14T00:26:11;100477.53;;;3.67;80.85
55675;BME280;41562;44.330;23.802;2023-03-14T00:28:40;100467.94;;;3.73;80.48
55675;BME280;41562;44.330;23.802;2023-03-14T00:31:10;100454.34;;;3.69;81.06
55675;BME280;41562;44.330;23.802;2023-03-14T00:33:39;100458.31;;;3.78;80.58
55675;BME280;41562;44.330;23.802;2023-03-14T00:36:09;100456.16;;;3.87;80.05
55675;BME280;41562;44.330;23.802;2023-03-14T00:38:39;100454.53;;;3.86;79.67
55675;BME280;41562;44.330;23.802;2023-03-14T00:41:13;100458.94;;;3.55;81.33
55675;BME280;41562;44.330;23.802;2023-03-14T00:43:41;100459.41;;;3.71;82.32
55675;BME280;41562;44.330;23.802;2023-03-14T00:46:09;100470.19;;;3.87;81.36
55675;BME280;41562;44.330;23.802;2023-03-14T00:48:37;100466.00;;;3.80;80.95
55675;BME280;41562;44.330;23.802;2023-03-14T00:51:06;100462.34;;;3.81;80.26
55675;BME280;41562;44.330;23.802;2023-03-14T00:53:38;100459.69;;;3.62;80.84
55675;BME280;41562;44.330;23.802;2023-03-14T00:56:10;100449.13;;;3.62;81.27
55675;BME280;41562;44.330;23.802;2023-03-14T00:58:38;100443.97;;;3.86;82.24
55675;BME280;41562;44.330;23.802;2023-03-14T01:01:11;100437.09;;;3.85;79.91
55675;BME280;41562;44.330;23.802;2023-03-14T01:03:39;100421.44;;;3.65;80.07
55675;BME280;41562;44.330;23.802;2023-03-14T01:06:15;100422.88;;;3.43;80.17
55675;BME280;41562;44.330;23.802;2023-03-14T01:08:44;100419.53;;;3.54;81.12
55675;BME280;41562;44.330;23.802;2023-03-14T01:11:14;100410.72;;;3.60;80.83
55675;BME280;41562;44.330;23.802;2023-03-14T01:13:42;100406.75;;;3.69;80.44
55675;BME280;41562;44.330;23.802;2023-03-14T01:16:10;100403.00;;;3.77;78.80
55675;BME280;41562;44.330;23.802;2023-03-14T01:18:40;100408.91;;;4.09;78.05
55675;BME280;41562;44.330;23.802;2023-03-14T01:21:17;100412.44;;;4.32;75.96
55675;BME280;41562;44.330;23.802;2023-03-14T01:23:46;100408.97;;;4.32;76.54
55675;BME280;41562;44.330;23.802;2023-03-14T01:26:17;100408.59;;;4.17;78.28
55675;BME280;41562;44.330;23.802;2023-03-14T01:28:45;100405.69;;;4.18;77.35
55675;BME280;41562;44.330;23.802;2023-03-14T01:31:14;100393.53;;;4.17;76.62
55675;BME280;41562;44.330;23.802;2023-03-14T01:33:41;100401.31;;;4.12;77.23
55675;BME280;41562;44.330;23.802;2023-03-14T01:36:10;100395.84;;;4.37;75.90
55675;BME280;41562;44.330;23.802;2023-03-14T01:38:40;100404.16;;;4.40;75.93
55675;BME280;41562;44.330;23.802;2023-03-14T01:41:13;100407.25;;;4.37;74.16
55675;BME280;41562;44.330;23.802;2023-03-14T01:43:41;100407.53;;;4.48;74.01
55675;BME280;41562;44.330;23.802;2023-03-14T01:48:52;100419.75;;;4.60;74.91
55675;BME280;41562;44.330;23.802;2023-03-14T01:51:44;100412.03;;;4.59;73.24
55675;BME280;41562;44.330;23.802;2023-03-14T01:54:28;100407.13;;;4.74;73.58
55675;BME280;41562;44.330;23.802;2023-03-14T01:59:31;100411.41;;;4.33;76.01
55675;BME280;41562;44.330;23.802;2023-03-14T02:02:00;100409.88;;;4.26;76.27
55675;BME280;41562;44.330;23.802;2023-03-14T02:04:30;100401.13;;;4.25;77.18
55675;BME280;41562;44.330;23.802;2023-03-14T02:07:05;100408.19;;;4.43;80.63
55675;BME280;41562;44.330;23.802;2023-03-14T02:09:36;100410.81;;;4.31;76.52
55675;BME280;41562;44.330;23.802;2023-03-14T02:12:05;100403.91;;;4.30;76.19
55675;BME280;41562;44.330;23.802;2023-03-14T02:14:36;100403.91;;;4.30;75.76
55675;BME280;41562;44.330;23.802;2023-03-14T02:17:05;100414.47;;;4.30;80.09
55675;BME280;41562;44.330;23.802;2023-03-14T02:22:26;100403.25;;;3.87;77.67
55675;BME280;41562;44.330;23.802;2023-03-14T02:27:23;100410.63;;;3.85;89.21
55675;BME280;41562;44.330;23.802;2023-03-14T02:29:54;100409.53;;;3.74;81.06
55675;BME280;41562;44.330;23.802;2023-03-14T02:32:26;100421.78;;;3.69;80.15
55675;BME280;41562;44.330;23.802;2023-03-14T02:34:58;100418.88;;;3.58;80.42
55675;BME280;41562;44.330;23.802;2023-03-14T02:37:32;100417.41;;;3.62;83.50
55675;BME280;41562;44.330;23.802;2023-03-14T02:40:01;100412.38;;;3.36;82.14
55675;BME280;41562;44.330;23.802;2023-03-14T02:42:28;100424.34;;;3.20;81.72
55675;BME280;41562;44.330;23.802;2023-03-14T02:47:42;100414.47;;;3.52;86.58
55675;BME280;41562;44.330;23.802;2023-03-14T02:50:16;100407.84;;;3.43;81.67
55675;BME280;41562;44.330;23.802;2023-03-14T02:52:45;100403.16;;;3.27;81.16
55675;BME280;41562;44.330;23.802;2023-03-14T02:55:13;100397.88;;;3.27;81.04
55675;BME280;41562;44.330;23.802;2023-03-14T02:57:41;100395.31;;;3.39;86.05
55675;BME280;41562;44.330;23.802;2023-03-14T03:00:09;100395.84;;;3.22;82.69
55675;BME280;41562;44.330;23.802;2023-03-14T03:02:36;100401.31;;;3.09;82.59
55675;BME280;41562;44.330;23.802;2023-03-14T03:05:04;100399.81;;;3.13;82.28
55675;BME280;41562;44.330;23.802;2023-03-14T03:07:31;100385.22;;;3.11;83.36
55675;BME280;41562;44.330;23.802;2023-03-14T03:09:59;100383.75;;;3.15;83.81
55675;BME280;41562;44.330;23.802;2023-03-14T03:12:27;100388.16;;;3.21;82.14
55675;BME280;41562;44.330;23.802;2023-03-14T03:14:54;100384.59;;;3.34;81.76
55675;BME280;41562;44.330;23.802;2023-03-14T03:17:22;100372.81;;;3.30;85.56
55675;BME280;41562;44.330;23.802;2023-03-14T03:19:49;100385.38;;;3.16;82.28
55675;BME280;41562;44.330;23.802;2023-03-14T03:22:16;100390.94;;;3.08;82.27
55675;BME280;41562;44.330;23.802;2023-03-14T03:24:44;100382.75;;;3.16;81.74
55675;BME280;41562;44.330;23.802;2023-03-14T03:27:11;100379.66;;;3.19;84.91
55675;BME280;41562;44.330;23.802;2023-03-14T03:29:39;100376.19;;;3.37;82.35
55675;BME280;41562;44.330;23.802;2023-03-14T03:32:06;100364.09;;;3.29;81.35
55675;BME280;41562;44.330;23.802;2023-03-14T03:34:33;100375.50;;;2.87;82.29
55675;BME280;41562;44.330;23.802;2023-03-14T03:37:01;100368.34;;;3.12;82.37
55675;BME280;41562;44.330;23.802;2023-03-14T03:39:28;100362.19;;;3.18;83.71
55675;BME280;41562;44.330;23.802;2023-03-14T03:41:56;100361.88;;;3.08;82.41
55675;BME280;41562;44.330;23.802;2023-03-14T03:44:23;100376.34;;;3.23;81.55
55675;BME280;41562;44.330;23.802;2023-03-14T03:46:51;100368.47;;;3.17;81.87
55675;BME280;41562;44.330;23.802;2023-03-14T03:49:18;100370.97;;;3.12;83.39
55675;BME280;41562;44.330;23.802;2023-03-14T03:51:46;100369.97;;;3.13;82.67
55675;BME280;41562;44.330;23.802;2023-03-14T03:54:13;100368.88;;;4.81;78.64
55675;BME280;41562;44.330;23.802;2023-03-14T03:56:40;100360.78;;;4.00;78.93
55675;BME280;41562;44.330;23.802;2023-03-14T03:59:08;100362.22;;;3.84;79.03
55675;BME280;41562;44.330;23.802;2023-03-14T04:01:36;100357.94;;;3.53;80.27
55675;BME280;41562;44.330;23.802;2023-03-14T04:04:05;100366.75;;;3.47;81.47
55675;BME280;41562;44.330;23.802;2023-03-14T04:06:33;100376.19;;;3.37;83.09
55675;BME280;41562;44.330;23.802;2023-03-14T04:09:00;100375.72;;;3.28;84.73
55675;BME280;41562;44.330;23.802;2023-03-14T04:11:28;100369.63;;;3.28;83.54
55675;BME280;41562;44.330;23.802;2023-03-14T04:13:56;100390.50;;;3.11;83.19
55675;BME280;41562;44.330;23.802;2023-03-14T04:16:24;100385.53;;;3.21;83.87
55675;BME280;41562;44.330;23.802;2023-03-14T04:18:52;100385.22;;;3.29;83.27
55675;BME280;41562;44.330;23.802;2023-03-14T04:21:19;100380.75;;;3.30;82.28
55675;BME280;41562;44.330;23.802;2023-03-14T04:23:47;100384.53;;;4.83;89.19
55675;BME280;41562;44.330;23.802;2023-03-14T04:26:14;100382.28;;;6.97;73.27
55675;BME280;41562;44.330;23.802;2023-03-14T04:28:42;100387.13;;;8.57;64.50
55675;BME280;41562;44.330;23.802;2023-03-14T04:31:20;100382.78;;;5.47;76.32
55675;BME280;41562;44.330;23.802;2023-03-14T04:33:48;100373.63;;;4.68;77.92
55675;BME280;41562;44.330;23.802;2023-03-14T04:36:15;100359.66;;;4.08;81.53
55675;BME280;41562;44.330;23.802;2023-03-14T04:38:43;100358.00;;;3.65;80.74
55675;BME280;41562;44.330;23.802;2023-03-14T04:41:10;100351.25;;;3.51;82.92
55675;BME280;41562;44.330;23.802;2023-03-14T04:43:38;100354.41;;;3.41;84.22
55675;BME280;41562;44.330;23.802;2023-03-14T04:46:20;100352.94;;;3.27;83.27
55675;BME280;41562;44.330;23.802;2023-03-14T04:48:47;100351.69;;;3.11;84.38
55675;BME280;41562;44.330;23.802;2023-03-14T04:51:15;100348.53;;;3.03;84.00
55675;BME280;41562;44.330;23.802;2023-03-14T04:53:43;100344.28;;;3.02;82.99
55675;BME280;41562;44.330;23.802;2023-03-14T04:56:11;100350.19;;;2.97;83.09
55675;BME280;41562;44.330;23.802;2023-03-14T04:58:39;100352.50;;;3.12;82.74
55675;BME280;41562;44.330;23.802;2023-03-14T05:01:07;100355.19;;;3.05;82.86
55675;BME280;41562;44.330;23.802;2023-03-14T05:03:36;100360.09;;;2.83;85.20
55675;BME280;41562;44.330;23.802;2023-03-14T05:06:05;100352.94;;;3.09;84.92
55675;BME280;41562;44.330;23.802;2023-03-14T05:08:33;100357.50;;;3.20;84.33
55675;BME280;41562;44.330;23.802;2023-03-14T05:11:01;100359.41;;;3.31;82.85
55675;BME280;41562;44.330;23.802;2023-03-14T05:13:29;100358.09;;;3.40;82.25
55675;BME280;41562;44.330;23.802;2023-03-14T05:16:07;100356.88;;;3.54;81.15
55675;BME280;41562;44.330;23.802;2023-03-14T05:18:37;100361.19;;;3.85;80.10
55675;BME280;41562;44.330;23.802;2023-03-14T05:21:05;100368.56;;;4.36;78.37
55675;BME280;41562;44.330;23.802;2023-03-14T05:23:32;100366.94;;;4.77;76.07
55675;BME280;41562;44.330;23.802;2023-03-14T05:26:00;100368.38;;;5.43;73.94
55675;BME280;41562;44.330;23.802;2023-03-14T05:28:27;100364.66;;;5.55;72.60
55675;BME280;41562;44.330;23.802;2023-03-14T05:30:55;100362.47;;;6.21;70.52
55675;BME280;41562;44.330;23.802;2023-03-14T05:33:22;100368.19;;;6.96;70.40
55675;BME280;41562;44.330;23.802;2023-03-14T05:35:50;100360.50;;;7.16;69.85
55675;BME280;41562;44.330;23.802;2023-03-14T05:38:17;100353.75;;;7.69;64.65
55675;BME280;41562;44.330;23.802;2023-03-14T05:40:45;100353.78;;;7.96;62.48
55675;BME280;41562;44.330;23.802;2023-03-14T05:43:13;100365.88;;;8.35;64.49
55675;BME280;41562;44.330;23.802;2023-03-14T05:45:41;100359.53;;;9.10;62.89
55675;BME280;41562;44.330;23.802;2023-03-14T05:48:09;100356.88;;;9.15;59.28
55675;BME280;41562;44.330;23.802;2023-03-14T05:50:37;100351.59;;;9.25;58.10
55675;BME280;41562;44.330;23.802;2023-03-14T05:53:04;100353.81;;;9.39;62.24
55675;BME280;41562;44.330;23.802;2023-03-14T05:55:31;100355.75;;;9.06;61.75
55675;BME280;41562;44.330;23.802;2023-03-14T05:57:59;100352.00;;;9.02;58.85
55675;BME280;41562;44.330;23.802;2023-03-14T06:00:26;100347.47;;;8.98;59.32
55675;BME280;41562;44.330;23.802;2023-03-14T06:02:54;100343.31;;;8.80;59.68
55675;BME280;41562;44.330;23.802;2023-03-14T06:05:22;100342.25;;;8.81;61.27
55675;BME280;41562;44.330;23.802;2023-03-14T06:07:50;100338.38;;;8.99;60.10
55675;BME280;41562;44.330;23.802;2023-03-14T06:10:18;100338.56;;;9.34;58.70
55675;BME280;41562;44.330;23.802;2023-03-14T06:12:45;100332.03;;;9.67;57.66
55675;BME280;41562;44.330;23.802;2023-03-14T06:15:13;100340.88;;;9.83;58.93
55675;BME280;41562;44.330;23.802;2023-03-14T06:17:41;100339.00;;;9.78;58.33
55675;BME280;41562;44.330;23.802;2023-03-14T06:20:10;100338.50;;;9.24;58.89
55675;BME280;41562;44.330;23.802;2023-03-14T06:22:38;100337.63;;;9.03;59.60
55675;BME280;41562;44.330;23.802;2023-03-14T06:25:06;100335.28;;;9.17;60.57
55675;BME280;41562;44.330;23.802;2023-03-14T06:27:34;100333.53;;;9.43;59.34
55675;BME280;41562;44.330;23.802;2023-03-14T06:30:02;100336.59;;;9.82;57.31
55675;BME280;41562;44.330;23.802;2023-03-14T06:32:29;100331.19;;;9.56;56.41
55675;BME280;41562;44.330;23.802;2023-03-14T06:34:56;100337.88;;;9.64;55.77
55675;BME280;41562;44.330;23.802;2023-03-14T06:37:24;100336.66;;;9.97;54.34
55675;BME280;41562;44.330;23.802;2023-03-14T06:39:51;100333.09;;;9.61;55.00
55675;BME280;41562;44.330;23.802;2023-03-14T06:42:18;100334.78;;;9.97;54.65
55675;BME280;41562;44.330;23.802;2023-03-14T06:44:46;100330.31;;;10.33;53.38
55675;BME280;41562;44.330;23.802;2023-03-14T06:47:13;100328.41;;;10.84;52.28
55675;BME280;41562;44.330;23.802;2023-03-14T06:49:41;100325.38;;;11.86;50.79
55675;BME280;41562;44.330;23.802;2023-03-14T06:52:08;100325.84;;;11.98;49.84
55675;BME280;41562;44.330;23.802;2023-03-14T06:54:37;100321.94;;;12.82;48.82
55675;BME280;41562;44.330;23.802;2023-03-14T06:57:05;100324.63;;;12.82;47.59
55675;BME280;41562;44.330;23.802;2023-03-14T06:59:32;100326.03;;;12.12;49.16
55675;BME280;41562;44.330;23.802;2023-03-14T07:02:00;100326.84;;;12.41;48.42
55675;BME280;41562;44.330;23.802;2023-03-14T07:04:27;100331.69;;;13.02;47.86
55675;BME280;41562;44.330;23.802;2023-03-14T07:06:55;100327.97;;;12.35;48.19
55675;BME280;41562;44.330;23.802;2023-03-14T07:09:22;100326.06;;;12.98;47.80
55675;BME280;41562;44.330;23.802;2023-03-14T07:11:52;100325.97;;;13.56;45.30
55675;BME280;41562;44.330;23.802;2023-03-14T07:14:23;100326.69;;;12.90;47.87
55675;BME280;41562;44.330;23.802;2023-03-14T07:16:51;100320.16;;;13.25;46.68
55675;BME280;41562;44.330;23.802;2023-03-14T07:19:21;100318.59;;;12.66;47.76
55675;BME280;41562;44.330;23.802;2023-03-14T07:21:48;100309.41;;;13.49;47.90
55675;BME280;41562;44.330;23.802;2023-03-14T07:24:16;100291.22;;;13.41;47.07
55675;BME280;41562;44.330;23.802;2023-03-14T07:26:43;100293.66;;;13.18;46.73
55675;BME280;41562;44.330;23.802;2023-03-14T07:29:12;100283.69;;;13.43;44.57
55675;BME280;41562;44.330;23.802;2023-03-14T07:31:40;100297.38;;;12.70;45.78
55675;BME280;41562;44.330;23.802;2023-03-14T07:34:07;100304.72;;;11.37;48.78
55675;BME280;41562;44.330;23.802;2023-03-14T07:36:35;100302.69;;;12.46;47.82
55675;BME280;41562;44.330;23.802;2023-03-14T07:39:03;100303.69;;;12.21;49.00
55675;BME280;41562;44.330;23.802;2023-03-14T07:41:31;100291.09;;;12.22;48.16
55675;BME280;41562;44.330;23.802;2023-03-14T07:43:58;100293.31;;;11.65;48.74
55675;BME280;41562;44.330;23.802;2023-03-14T07:46:26;100291.34;;;11.27;49.42
55675;BME280;41562;44.330;23.802;2023-03-14T07:48:53;100296.44;;;11.83;49.17
55675;BME280;41562;44.330;23.802;2023-03-14T07:51:21;100298.13;;;12.13;49.22
55675;BME280;41562;44.330;23.802;2023-03-14T07:53:48;100297.13;;;12.37;48.92
55675;BME280;41562;44.330;23.802;2023-03-14T07:56:16;100290.56;;;13.06;48.98
55675;BME280;41562;44.330;23.802;2023-03-14T07:58:43;100288.22;;;11.64;49.02
55675;BME280;41562;44.330;23.802;2023-03-14T08:01:13;100277.91;;;11.42;49.26
55675;BME280;41562;44.330;23.802;2023-03-14T08:03:41;100273.56;;;11.51;48.80
55675;BME280;41562;44.330;23.802;2023-03-14T08:06:15;100279.13;;;12.09;48.75
55675;BME280;41562;44.330;23.802;2023-03-14T08:08:42;100277.25;;;12.43;47.70
55675;BME280;41562;44.330;23.802;2023-03-14T08:11:09;100265.06;;;12.80;46.69
55675;BME280;41562;44.330;23.802;2023-03-14T08:13:37;100262.75;;;12.44;47.11
55675;BME280;41562;44.330;23.802;2023-03-14T08:16:05;100255.81;;;12.91;47.71
55675;BME280;41562;44.330;23.802;2023-03-14T08:18:33;100252.91;;;13.54;47.19
55675;BME280;41562;44.330;23.802;2023-03-14T08:21:02;100254.69;;;12.97;46.91
55675;BME280;41562;44.330;23.802;2023-03-14T08:23:30;100248.00;;;12.95;46.16
55675;BME280;41562;44.330;23.802;2023-03-14T08:25:57;100254.38;;;13.27;48.70
55675;BME280;41562;44.330;23.802;2023-03-14T08:28:25;100248.56;;;13.58;44.95
55675;BME280;41562;44.330;23.802;2023-03-14T08:30:54;100247.16;;;12.99;46.17
55675;BME280;41562;44.330;23.802;2023-03-14T08:33:22;100241.91;;;12.89;46.81
55675;BME280;41562;44.330;23.802;2023-03-14T08:35:53;100240.63;;;13.29;45.29
55675;BME280;41562;44.330;23.802;2023-03-14T08:38:21;100235.25;;;13.66;44.21
55675;BME280;41562;44.330;23.802;2023-03-14T08:40:50;100226.69;;;13.83;44.65
55675;BME280;41562;44.330;23.802;2023-03-14T08:43:21;100221.53;;;13.68;43.62
55675;BME280;41562;44.330;23.802;2023-03-14T08:45:50;100217.94;;;13.59;45.57
55675;BME280;41562;44.330;23.802;2023-03-14T08:48:19;100213.22;;;12.61;45.06
55675;BME280;41562;44.330;23.802;2023-03-14T08:50:47;100210.03;;;13.06;45.63
55675;BME280;41562;44.330;23.802;2023-03-14T08:53:14;100208.81;;;13.17;45.74
55675;BME280;41562;44.330;23.802;2023-03-14T08:55:42;100213.34;;;13.59;44.40
55675;BME280;41562;44.330;23.802;2023-03-14T08:58:12;100207.81;;;13.13;44.42
55675;BME280;41562;44.330;23.802;2023-03-14T09:00:39;100190.78;;;12.99;45.22
55675;BME280;41562;44.330;23.802;2023-03-14T09:03:07;100200.34;;;13.29;45.04
55675;BME280;41562;44.330;23.802;2023-03-14T09:05:40;100192.03;;;13.07;45.84
55675;BME280;41562;44.330;23.802;2023-03-14T09:08:07;100194.13;;;13.34;43.50
55675;BME280;41562;44.330;23.802;2023-03-14T09:10:37;100188.31;;;13.26;44.04
55675;BME280;41562;44.330;23.802;2023-03-14T09:13:05;100181.84;;;13.65;44.37
55675;BME280;41562;44.330;23.802;2023-03-14T09:15:33;100179.81;;;13.57;45.45
55675;BME280;41562;44.330;23.802;2023-03-14T09:18:00;100167.09;;;13.62;44.17
55675;BME280;41562;44.330;23.802;2023-03-14T09:20:27;100165.63;;;13.70;43.57
55675;BME280;41562;44.330;23.802;2023-03-14T09:22:55;100163.47;;;13.53;43.71
55675;BME280;41562;44.330;23.802;2023-03-14T09:25:22;100156.63;;;13.93;46.30
55675;BME280;41562;44.330;23.802;2023-03-14T09:27:50;100152.44;;;13.55;43.80
55675;BME280;41562;44.330;23.802;2023-03-14T09:30:18;100138.25;;;12.93;45.86
55675;BME280;41562;44.330;23.802;2023-03-14T09:32:45;100145.63;;;13.44;44.73
55675;BME280;41562;44.330;23.802;2023-03-14T09:35:13;100137.72;;;13.66;45.53
55675;BME280;41562;44.330;23.802;2023-03-14T09:37:40;100142.00;;;13.99;43.48
55675;BME280;41562;44.330;23.802;2023-03-14T09:40:12;100131.28;;;13.67;44.48
55675;BME280;41562;44.330;23.802;2023-03-14T09:42:40;100128.56;;;13.16;45.21
55675;BME280;41562;44.330;23.802;2023-03-14T09:45:25;100114.72;;;13.46;46.80
55675;BME280;41562;44.330;23.802;2023-03-14T09:47:53;100119.41;;;14.00;44.62
55675;BME280;41562;44.330;23.802;2023-03-14T09:50:32;100116.34;;;14.07;43.81
55675;BME280;41562;44.330;23.802;2023-03-14T09:53:07;100109.38;;;14.20;43.31
55675;BME280;41562;44.330;23.802;2023-03-14T09:55:36;100106.78;;;14.83;45.08
55675;BME280;41562;44.330;23.802;2023-03-14T09:58:10;100099.16;;;14.63;42.25
55675;BME280;41562;44.330;23.802;2023-03-14T10:00:38;100100.25;;;14.34;41.64
55675;BME280;41562;44.330;23.802;2023-03-14T10:05:35;100098.81;;;14.37;41.92
55675;BME280;41562;44.330;23.802;2023-03-14T10:08:03;100097.81;;;14.74;42.25
55675;BME280;41562;44.330;23.802;2023-03-14T10:10:32;100085.91;;;14.39;43.33
55675;BME280;41562;44.330;23.802;2023-03-14T10:13:12;100073.56;;;14.52;41.90
55675;BME280;41562;44.330;23.802;2023-03-14T10:15:41;100084.88;;;14.62;44.01
55675;BME280;41562;44.330;23.802;2023-03-14T10:18:12;100076.34;;;14.60;41.01
55675;BME280;41562;44.330;23.802;2023-03-14T10:20:45;100070.56;;;14.53;41.19
55675;BME280;41562;44.330;23.802;2023-03-14T10:25:46;100052.69;;;14.71;37.79
55675;BME280;41562;44.330;23.802;2023-03-14T10:28:28;100052.66;;;14.84;38.46
55675;BME280;41562;44.330;23.802;2023-03-14T10:30:57;100040.72;;;14.77;38.35
55675;BME280;41562;44.330;23.802;2023-03-14T10:33:31;100040.69;;;15.13;38.72
55675;BME280;41562;44.330;23.802;2023-03-14T10:36:05;100042.03;;;15.02;39.58
55675;BME280;41562;44.330;23.802;2023-03-14T10:38:43;100032.50;;;14.46;36.83
55675;BME280;41562;44.330;23.802;2023-03-14T10:41:18;100024.16;;;15.06;36.77
55675;BME280;41562;44.330;23.802;2023-03-14T10:43:50;100015.81;;;15.38;36.38
55675;BME280;41562;44.330;23.802;2023-03-14T10:46:19;100024.19;;;15.37;36.68
55675;BME280;41562;44.330;23.802;2023-03-14T10:48:46;100023.66;;;15.48;35.61
55675;BME280;41562;44.330;23.802;2023-03-14T10:53:45;100024.88;;;17.29;37.87
55675;BME280;41562;44.330;23.802;2023-03-14T10:56:23;100018.22;;;16.01;36.73
55675;BME280;41562;44.330;23.802;2023-03-14T10:58:57;100009.81;;;17.03;38.03
55675;BME280;41562;44.330;23.802;2023-03-14T11:01:34;100005.69;;;16.71;35.85
55675;BME280;41562;44.330;23.802;2023-03-14T11:09:35;99992.63;;;16.56;36.54
55675;BME280;41562;44.330;23.802;2023-03-14T11:15:03;99976.44;;;17.71;36.53
55675;BME280;41562;44.330;23.802;2023-03-14T11:17:49;99961.19;;;17.96;36.27
55675;BME280;41562;44.330;23.802;2023-03-14T11:20:35;99946.09;;;18.24;37.38
55675;BME280;41562;44.330;23.802;2023-03-14T11:23:12;99951.47;;;18.03;35.51
55675;BME280;41562;44.330;23.802;2023-03-14T11:28:36;99928.38;;;17.77;38.08
55675;BME280;41562;44.330;23.802;2023-03-14T11:31:13;99929.00;;;17.36;34.91
55675;BME280;41562;44.330;23.802;2023-03-14T11:36:26;99912.97;;;15.45;40.31
55675;BME280;41562;44.330;23.802;2023-03-14T11:38:59;99906.06;;;15.52;37.99
55675;BME280;41562;44.330;23.802;2023-03-14T11:41:32;99902.47;;;14.73;36.32
55675;BME280;41562;44.330;23.802;2023-03-14T11:45:03;99886.75;;;14.66;36.22
55675;BME280;41562;44.330;23.802;2023-03-14T11:47:26;99893.94;;;15.02;36.69
55675;BME280;41562;44.330;23.802;2023-03-14T11:52:35;99879.53;;;15.46;35.55
55675;BME280;41562;44.330;23.802;2023-03-14T11:57:39;99866.22;;;15.49;33.55
55675;BME280;41562;44.330;23.802;2023-03-14T12:00:17;99854.09;;;15.21;34.89
55675;BME280;41562;44.330;23.802;2023-03-14T12:02:53;99849.34;;;15.57;35.63
55675;BME280;41562;44.330;23.802;2023-03-14T12:10:42;99845.38;;;15.63;35.71
55675;BME280;41562;44.330;23.802;2023-03-14T12:13:13;99841.19;;;15.40;34.86
55675;BME280;41562;44.330;23.802;2023-03-14T12:15:49;99836.75;;;15.44;36.57
55675;BME280;41562;44.330;23.802;2023-03-14T12:20:55;99813.69;;;15.60;35.18
55675;BME280;41562;44.330;23.802;2023-03-14T12:23:26;99814.22;;;15.40;35.12
55675;BME280;41562;44.330;23.802;2023-03-14T12:26:26;99808.47;;;15.73;35.83
55675;BME280;41562;44.330;23.802;2023-03-14T12:39:29;99777.25;;;15.15;35.78
55675;BME280;41562;44.330;23.802;2023-03-14T12:42:02;99768.81;;;15.08;35.84
55675;BME280;41562;44.330;23.802;2023-03-14T12:47:26;99764.22;;;15.08;36.40
55675;BME280;41562;44.330;23.802;2023-03-14T12:49:51;99760.75;;;15.08;34.52
55675;BME280;41562;44.330;23.802;2023-03-14T12:52:22;99744.53;;;14.99;35.04
55675;BME280;41562;44.330;23.802;2023-03-14T12:57:54;99741.78;;;15.30;35.56
55675;BME280;41562;44.330;23.802;2023-03-14T13:00:31;99737.09;;;14.96;36.42
55675;BME280;41562;44.330;23.802;2023-03-14T13:03:12;99726.56;;;15.17;36.89
55675;BME280;41562;44.330;23.802;2023-03-14T13:06:01;99721.97;;;15.26;38.80
55675;BME280;41562;44.330;23.802;2023-03-14T13:11:18;99715.50;;;15.36;36.98
55675;BME280;41562;44.330;23.802;2023-03-14T13:13:49;99688.19;;;15.11;36.25
55675;BME280;41562;44.330;23.802;2023-03-14T13:16:21;99692.66;;;15.24;36.23
55675;BME280;41562;44.330;23.802;2023-03-14T13:18:59;99685.81;;;15.10;36.33
55675;BME280;41562;44.330;23.802;2023-03-14T13:21:34;99686.91;;;14.92;37.08
55675;BME280;41562;44.330;23.802;2023-03-14T13:24:05;99680.78;;;15.17;37.10
55675;BME280;41562;44.330;23.802;2023-03-14T13:26:39;99683.59;;;15.12;37.99
55675;BME280;41562;44.330;23.802;2023-03-14T13:29:21;99665.97;;;14.88;37.79
55675;BME280;41562;44.330;23.802;2023-03-14T13:31:54;99673.78;;;15.16;37.08
55675;BME280;41562;44.330;23.802;2023-03-14T13:34:25;99661.84;;;14.82;37.36
55675;BME280;41562;44.330;23.802;2023-03-14T13:36:54;99658.91;;;15.27;39.20
55675;BME280;41562;44.330;23.802;2023-03-14T13:39:24;99647.19;;;15.32;37.26
55675;BME280;41562;44.330;23.802;2023-03-14T13:41:53;99644.66;;;15.35;37.48
55675;BME280;41562;44.330;23.802;2023-03-14T13:44:25;99636.06;;;15.24;36.47
55675;BME280;41562;44.330;23.802;2023-03-14T13:47:03;99634.47;;;15.06;36.65
55675;BME280;41562;44.330;23.802;2023-03-14T13:49:33;99620.25;;;15.14;36.16
55675;BME280;41562;44.330;23.802;2023-03-14T13:52:01;99619.13;;;15.07;36.24
55675;BME280;41562;44.330;23.802;2023-03-14T13:54:31;99612.00;;;15.02;36.70
55675;BME280;41562;44.330;23.802;2023-03-14T13:57:02;99601.53;;;15.18;38.15
55675;BME280;41562;44.330;23.802;2023-03-14T13:59:34;99611.03;;;15.07;36.97
55675;BME280;41562;44.330;23.802;2023-03-14T14:02:23;99603.56;;;14.86;35.95
55675;BME280;41562;44.330;23.802;2023-03-14T14:04:52;99589.81;;;14.79;36.85
55675;BME280;41562;44.330;23.802;2023-03-14T14:07:20;99586.34;;;14.96;38.61
55675;BME280;41562;44.330;23.802;2023-03-14T14:09:53;99579.34;;;14.86;37.17